Flight Track Log - Related Links

Times and Time Zones

All times are in EST time to prevent confusion due to time zone crossing. See the N42HN flight status page for this flight to view local times or setup timezone preferences in your user account.

Time Position Orientation Groundspeed Altitude Reporting Facility
EST Latitude Longitude Course Direction KTS MPH feet Rate Location/Type
Thu 12:42:49 PM 45.2833 -75.7000 98° East 190 219 4,600  Level Montreal Center
Thu 12:43:49 PM 45.2500 -75.7500 227° Southwest 210 242 9,200 3,200 Climbing Montreal Center
Thu 12:44:49 PM 45.1833 -75.7333 170° South 330 380 11,000 900 Climbing Montreal Center
Thu 12:45:49 PM 45.1833 -75.5833 90° East 370 426 11,000  Level Montreal Center
Thu 12:46:49 PM 45.1667 -75.4167 98° East 380 437 11,000  Level Montreal Center
Thu 12:47:49 PM 45.1667 -75.2833 90° East 390 449 11,000  Level Montreal Center
Thu 12:48:00 PM 45.2486 -74.9005 98° East  Level FlightAware Approximate
Thu 12:48:49 PM 45.1667 -75.1333 90° East 390 449 11,000  Level Montreal Center
Thu 12:49:49 PM 45.1500 -74.9667 98° East 410 472 11,000  Level Montreal Center
Thu 12:50:49 PM 45.1667 -74.8333 80° East 390 449 11,000  Level Montreal Center
Thu 12:51:49 PM 45.1833 -74.6667 82° East 390 449 11,000  Level Montreal Center
Thu 12:52:49 PM 45.1833 -74.5167 90° East 380 437 11,000  Level Montreal Center
Thu 12:53:49 PM 45.2167 -74.3500 74° East 390 449 11,000  Level Montreal Center
Thu 12:54:49 PM 45.2833 -74.2333 51° Northeast 390 449 11,000 -300 Level Montreal Center
Thu 12:55:49 PM 45.3333 -74.1167 59° Northeast 380 437 10,400 -950 Descending Montreal Center
Thu 12:56:49 PM 45.3667 -73.9833 70° East 320 368 9,100 -1,200 Descending Montreal Center
Thu 12:57:49 PM 45.4500 -73.9167 29° Northeast 310 357 8,000 -850 Descending Montreal Center
Thu 12:58:49 PM 45.5000 -73.8333 49° Northeast 290 334 7,400 -1,250 Descending Montreal Center
Thu 12:59:49 PM 45.5667 -73.7667 35° Northeast 290 334 5,500 -1,500 Descending Montreal Center
Thu 01:00:49 PM 45.6333 -73.6833 41° Northeast 270 311 4,400 -850 Descending Montreal Center
Thu 01:01:49 PM 45.6500 -73.6167 70° East 230 265 3,800 -700 Descending Montreal Center
Thu 01:02:49 PM 45.6167 -73.5500 126° Southeast 190 219 3,000 -400 Descending Montreal Center
Thu 01:03:49 PM 45.5667 -73.5667 193° South 180 207 3,000 -500 Level Montreal Center
Thu 01:04:49 PM 45.5333 -73.6167 226° Southwest 170 196 2,000 -850 Descending Montreal Center
Thu 01:05:49 PM 45.5000 -73.6500 215° Southwest 140 161 1,300 -700 Descending Montreal Center
Thu 01:06:49 PM 45.4833 -73.7000 245° Southwest 130 150 600 -700 Descending Montreal Center

Login

Don't have an account? Register now (free) for customized features, flight alerts, and more!